Time;durP1;ratioP1;P1;durP2;ratioP2;P2;SDS_P1;SDS_P2;PMS_P1;PMS_P2;Temp;Humidity;BMP_temperature;BMP_pressure;BME280_temperature;BME280_humidity;BME280_pressure;Samples;Min_cycle;Max_cycle;Signal;HPM_P1;HPM_P2
2022/07/18 00:00:12;;;;;;;;;;;;;;;;;;1838435;29;8041;-67
2022/07/18 00:01:10;;;;;;;;;;;;;;;;;;1838171;29;7018;-68
2022/07/18 00:02:07;;;;;;;;;;;;;;;;;;1840350;29;7039;-67
2022/07/18 00:03:05;;;;;;;;;;;;;;;;;;1845735;29;7014;-66
2022/07/18 00:04:02;;;;;;;;;;;;;;;;;;1841743;29;7010;-67
2022/07/18 00:05:00;;;;;;;;;;;;;;;;;;1838829;29;7015;-69
2022/07/18 00:05:58;;;;;;;;;;;;;;;;;;1839561;29;7172;-68
2022/07/18 00:06:55;;;;;;;;;;;;;;;;;;1831622;29;7275;-68
2022/07/18 00:07:53;;;;;;;;;;;;;;;;;;1838201;29;7273;-68
2022/07/18 00:08:51;;;;;;;;;;;;;;;;;;1834112;29;7162;-69
2022/07/18 00:09:48;;;;;;;;;;;;;;;;;;1834661;29;7006;-68
2022/07/18 00:10:46;;;;;;;;;;;;;;;;;;1844156;29;7672;-68
2022/07/18 00:11:44;;;;;;;;;;;;;;;;;;1844474;29;7010;-68
2022/07/18 00:12:41;;;;;;;;;;;;;;;;;;1843574;29;7097;-69
2022/07/18 00:13:39;;;;;;;;;;;;;;;;;;1838748;29;7007;-68
2022/07/18 00:14:38;;;;;;;;;;;;;;;;;;1842821;29;7006;-68
2022/07/18 00:15:36;;;;;;;;;;;;;;;;;;1845356;29;7006;-68
2022/07/18 00:16:33;;;;;;;;;;;;;;;;;;1845599;29;8093;-69
2022/07/18 00:17:31;;;;;;;;;;;;;;;;;;1840568;29;7101;-68
2022/07/18 00:18:29;;;;;;;;;;;;;;;;;;1839218;29;7007;-68
2022/07/18 00:19:27;;;;;;;;;;;;;;;;;;1838505;29;7031;-68
2022/07/18 00:20:24;;;;;;;;;;;;;;;;;;1838078;29;7010;-68
2022/07/18 00:21:22;;;;;;;;;;;;;;;;;;1838105;29;7011;-68
2022/07/18 00:22:19;;;;;;;;;;;;;;;;;;1838371;29;7090;-69
2022/07/18 00:23:17;;;;;;;;;;;;;;;;;;1839972;29;7159;-68
2022/07/18 00:24:14;;;;;;;;;;;;;;;;;;1845649;29;7011;-69
2022/07/18 00:25:11;;;;;;;;;;;;;;;;;;1838791;29;8014;-67
2022/07/18 00:26:09;;;;;;;;;;;;;;;;;;1844706;29;7010;-69
2022/07/18 00:27:07;;;;;;;;;;;;;;;;;;1840890;29;7240;-67
2022/07/18 00:28:04;;;;;;;;;;;;;;;;;;1838865;29;7007;-68
2022/07/18 00:29:02;;;;;;;;;;;;;;;;;;1839014;29;7007;-70
2022/07/18 00:30:04;;;;;;;;;;;;;;;;;;1839016;29;7097;-69
2022/07/18 00:31:01;;;;;;;;;;;;;;;;;;1843438;29;7022;-69
2022/07/18 00:31:59;;;;;;;;;;;;;;;;;;1841114;29;7098;-69
2022/07/18 00:32:56;;;;;;;;;;;;;;;;;;1841382;29;7094;-69
2022/07/18 00:33:54;;;;;;;;;;;;;;;;;;1841413;29;7011;-68
2022/07/18 00:34:51;;;;;;;;;;;;;;;;;;1840979;29;7007;-68
2022/07/18 00:35:49;;;;;;;;;;;;;;;;;;1845326;29;7010;-68
2022/07/18 00:36:46;;;;;;;;;;;;;;;;;;1841715;29;7031;-68
2022/07/18 00:37:43;;;;;;;;;;;;;;;;;;1839238;29;7093;-68
2022/07/18 00:38:41;;;;;;;;;;;;;;;;;;1839454;29;7101;-68
2022/07/18 00:39:38;;;;;;;;;;;;;;;;;;1844000;29;7319;-67
2022/07/18 00:40:36;;;;;;;;;;;;;;;;;;1845698;29;8033;-68
2022/07/18 00:41:33;;;;;;;;;;;;;;;;;;1838216;29;7067;-67
2022/07/18 00:42:31;;;;;;;;;;;;;;;;;;1837123;29;7010;-68
2022/07/18 00:43:28;;;;;;;;;;;;;;;;;;1845853;29;7006;-67
2022/07/18 00:44:28;;;;;;;;;;;;;;;;;;1847198;29;7098;-68
2022/07/18 00:45:26;;;;;;;;;;;;;;;;;;1839110;29;7584;-69
2022/07/18 00:46:27;;;;;;;;;;;;;;;;;;1840096;29;7014;-69
2022/07/18 00:47:26;;;;;;;;;;;;;;;;;;1840568;29;7038;-68
2022/07/18 00:48:23;;;;;;;;;;;;;;;;;;1840611;29;7014;-68
2022/07/18 00:49:21;;;;;;;;;;;;;;;;;;1840595;29;7046;-68
2022/07/18 00:50:19;;;;;;;;;;;;;;;;;;1840114;29;7058;-66
2022/07/18 00:51:17;;;;;;;;;;;;;;;;;;1840387;29;7011;-67
2022/07/18 00:52:15;;;;;;;;;;;;;;;;;;1839672;29;7094;-69
2022/07/18 00:53:12;;;;;;;;;;;;;;;;;;1842679;29;7007;-69
2022/07/18 00:54:10;;;;;;;;;;;;;;;;;;1844777;29;8126;-68
2022/07/18 00:55:08;;;;;;;;;;;;;;;;;;1847804;29;7007;-68
2022/07/18 00:56:06;;;;;;;;;;;;;;;;;;1847023;29;7326;-67
2022/07/18 00:57:03;;;;;;;;;;;;;;;;;;1846894;29;7022;-68
2022/07/18 00:58:00;;;;;;;;;;;;;;;;;;1844410;29;7051;-68
2022/07/18 00:58:58;;;;;;;;;;;;;;;;;;1846045;29;7007;-69
2022/07/18 01:02:29;;;;;;;;;;;;;;;;;;1840326;29;7014;-68
2022/07/18 01:03:27;;;;;;;;;;;;;;;;;;1845268;29;7014;-67
2022/07/18 01:04:24;;;;;;;;;;;;;;;;;;1846093;29;7039;-68
2022/07/18 01:05:21;;;;;;;;;;;;;;;;;;1840492;29;7374;-67
2022/07/18 01:06:19;;;;;;;;;;;;;;;;;;1841736;29;7203;-67
2022/07/18 01:07:16;;;;;;;;;;;;;;;;;;1844458;29;7318;-69
2022/07/18 01:08:14;;;;;;;;;;;;;;;;;;1842115;29;7127;-71
2022/07/18 01:09:12;;;;;;;;;;;;;;;;;;1839788;29;7003;-70
2022/07/18 01:10:09;;;;;;;;;;;;;;;;;;1841366;29;7010;-67
2022/07/18 01:11:07;;;;;;;;;;;;;;;;;;1839711;29;7010;-68
2022/07/18 01:12:05;;;;;;;;;;;;;;;;;;1840185;29;7010;-68
2022/07/18 01:13:02;;;;;;;;;;;;;;;;;;1844233;29;7034;-68
2022/07/18 01:14:02;;;;;;;;;;;;;;;;;;1840198;29;7093;-66
2022/07/18 01:14:59;;;;;;;;;;;;;;;;;;1842532;29;7035;-69
2022/07/18 01:15:57;;;;;;;;;;;;;;;;;;1847260;29;7007;-68
2022/07/18 01:16:54;;;;;;;;;;;;;;;;;;1845256;29;7003;-67
2022/07/18 01:17:52;;;;;;;;;;;;;;;;;;1847317;29;7010;-67
2022/07/18 01:18:50;;;;;;;;;;;;;;;;;;1844409;29;7110;-67
2022/07/18 01:19:47;;;;;;;;;;;;;;;;;;1839307;29;7089;-67
2022/07/18 01:20:45;;;;;;;;;;;;;;;;;;1839722;29;7038;-68
2022/07/18 01:21:42;;;;;;;;;;;;;;;;;;1839730;29;7014;-68
2022/07/18 01:22:41;;;;;;;;;;;;;;;;;;1841471;29;7294;-68
2022/07/18 01:23:39;;;;;;;;;;;;;;;;;;1840091;29;7006;-67
2022/07/18 01:24:37;;;;;;;;;;;;;;;;;;1839869;29;7043;-68
2022/07/18 01:25:34;;;;;;;;;;;;;;;;;;1840493;29;8093;-68
2022/07/18 01:26:33;;;;;;;;;;;;;;;;;;1839506;29;7018;-68
2022/07/18 01:27:31;;;;;;;;;;;;;;;;;;1840298;29;7022;-68
2022/07/18 01:28:28;;;;;;;;;;;;;;;;;;1843530;29;7055;-66
2022/07/18 01:29:25;;;;;;;;;;;;;;;;;;1843613;29;7078;-69
2022/07/18 01:30:24;;;;;;;;;;;;;;;;;;1844133;29;7022;-67
2022/07/18 01:31:21;;;;;;;;;;;;;;;;;;1839562;29;7105;-68
2022/07/18 01:32:19;;;;;;;;;;;;;;;;;;1846760;29;7074;-66
2022/07/18 01:33:17;;;;;;;;;;;;;;;;;;1846669;29;7006;-67
2022/07/18 01:34:14;;;;;;;;;;;;;;;;;;1846582;29;7035;-67
2022/07/18 01:35:12;;;;;;;;;;;;;;;;;;1842658;29;7003;-68
2022/07/18 01:36:09;;;;;;;;;;;;;;;;;;1843881;29;7002;-66
2022/07/18 01:37:07;;;;;;;;;;;;;;;;;;1844927;29;7373;-69
2022/07/18 01:38:05;;;;;;;;;;;;;;;;;;1839885;29;7002;-69
2022/07/18 01:39:02;;;;;;;;;;;;;;;;;;1846280;29;7006;-68
2022/07/18 01:39:59;;;;;;;;;;;;;;;;;;1846685;29;7031;-70
2022/07/18 01:40:57;;;;;;;;;;;;;;;;;;1841342;29;7038;-69
2022/07/18 01:41:55;;;;;;;;;;;;;;;;;;1840607;29;7003;-70
2022/07/18 01:42:53;;;;;;;;;;;;;;;;;;1846414;29;7022;-70
2022/07/18 01:43:50;;;;;;;;;;;;;;;;;;1845790;29;7093;-70
2022/07/18 01:44:48;;;;;;;;;;;;;;;;;;1842331;29;7010;-71
2022/07/18 01:45:45;;;;;;;;;;;;;;;;;;1839721;29;7149;-70
2022/07/18 01:46:43;;;;;;;;;;;;;;;;;;1846793;29;7011;-70
2022/07/18 01:47:41;;;;;;;;;;;;;;;;;;1838828;29;7369;-68
2022/07/18 01:48:39;;;;;;;;;;;;;;;;;;1844226;29;8094;-71
2022/07/18 01:49:38;;;;;;;;;;;;;;;;;;1845708;29;7055;-70
2022/07/18 01:50:35;;;;;;;;;;;;;;;;;;1846293;29;7097;-71
2022/07/18 01:51:33;;;;;;;;;;;;;;;;;;1843345;29;7007;-69
2022/07/18 01:52:31;;;;;;;;;;;;;;;;;;1839101;29;7010;-70
2022/07/18 01:53:28;;;;;;;;;;;;;;;;;;1839533;29;7235;-70
2022/07/18 01:54:27;;;;;;;;;;;;;;;;;;1839414;29;7042;-71
2022/07/18 01:55:25;;;;;;;;;;;;;;;;;;1841427;29;7007;-71
2022/07/18 01:56:22;;;;;;;;;;;;;;;;;;1838869;29;7011;-70
2022/07/18 01:57:20;;;;;;;;;;;;;;;;;;1839521;29;8045;-70
2022/07/18 01:58:17;;;;;;;;;;;;;;;;;;1839718;29;7117;-70
2022/07/18 01:59:14;;;;;;;;;;;;;;;;;;1841699;29;7006;-70
2022/07/18 02:00:13;;;;;;;;;;;;;;;;;;1844887;29;7152;-70
2022/07/18 02:01:10;;;;;;;;;;;;;;;;;;1843347;29;7784;-70
2022/07/18 02:02:07;;;;;;;;;;;;;;;;;;1847106;29;7010;-68
2022/07/18 02:03:05;;;;;;;;;;;;;;;;;;1842352;29;7041;-70
2022/07/18 02:04:02;;;;;;;;;;;;;;;;;;1839992;29;7035;-69
2022/07/18 02:05:00;;;;;;;;;;;;;;;;;;1840539;29;7097;-70
2022/07/18 02:05:58;;;;;;;;;;;;;;;;;;1844993;29;7010;-69
2022/07/18 02:06:56;;;;;;;;;;;;;;;;;;1846344;29;7010;-70
2022/07/18 02:07:53;;;;;;;;;;;;;;;;;;1838679;29;8556;-69
2022/07/18 02:08:51;;;;;;;;;;;;;;;;;;1842844;29;7026;-69
2022/07/18 02:09:48;;;;;;;;;;;;;;;;;;1846382;29;7380;-70
2022/07/18 02:10:46;;;;;;;;;;;;;;;;;;1845769;29;7011;-69
2022/07/18 02:11:43;;;;;;;;;;;;;;;;;;1846292;29;7026;-69
2022/07/18 02:12:41;;;;;;;;;;;;;;;;;;1841146;29;8063;-69
2022/07/18 02:13:39;;;;;;;;;;;;;;;;;;1838808;29;7014;-69
2022/07/18 02:14:36;;;;;;;;;;;;;;;;;;1843752;29;8041;-68
2022/07/18 02:15:34;;;;;;;;;;;;;;;;;;1839875;29;7047;-70
2022/07/18 02:16:32;;;;;;;;;;;;;;;;;;1846014;29;7006;-69
2022/07/18 02:17:30;;;;;;;;;;;;;;;;;;1845523;29;7113;-69
2022/07/18 02:18:31;;;;;;;;;;;;;;;;;;1843290;29;7089;-69
2022/07/18 02:19:32;;;;;;;;;;;;;;;;;;1842970;29;7153;-69
2022/07/18 02:20:30;;;;;;;;;;;;;;;;;;1839510;29;7165;-69
2022/07/18 02:21:27;;;;;;;;;;;;;;;;;;1838304;29;8109;-69
2022/07/18 02:22:25;;;;;;;;;;;;;;;;;;1843492;29;7002;-69
2022/07/18 02:23:23;;;;;;;;;;;;;;;;;;1841167;29;7022;-69
2022/07/18 02:24:20;;;;;;;;;;;;;;;;;;1846666;29;7096;-69
2022/07/18 02:25:17;;;;;;;;;;;;;;;;;;1846128;29;7047;-69
2022/07/18 02:26:15;;;;;;;;;;;;;;;;;;1846504;29;7401;-70
2022/07/18 02:27:12;;;;;;;;;;;;;;;;;;1844116;29;7047;-68
2022/07/18 02:28:09;;;;;;;;;;;;;;;;;;1840183;29;7110;-69
2022/07/18 02:29:07;;;;;;;;;;;;;;;;;;1839509;29;7118;-69
2022/07/18 02:30:06;;;;;;;;;;;;;;;;;;1841823;29;7010;-69
2022/07/18 02:31:04;;;;;;;;;;;;;;;;;;1840430;29;7646;-70
2022/07/18 02:32:02;;;;;;;;;;;;;;;;;;1838595;29;7898;-70
2022/07/18 02:33:00;;;;;;;;;;;;;;;;;;1843426;29;7304;-69
2022/07/18 02:33:57;;;;;;;;;;;;;;;;;;1845054;29;7076;-70
2022/07/18 02:34:54;;;;;;;;;;;;;;;;;;1839261;29;7118;-68
2022/07/18 02:35:52;;;;;;;;;;;;;;;;;;1841694;29;7070;-69
2022/07/18 02:36:50;;;;;;;;;;;;;;;;;;1845734;29;7338;-69
2022/07/18 02:37:48;;;;;;;;;;;;;;;;;;1844880;29;7094;-69
2022/07/18 02:38:45;;;;;;;;;;;;;;;;;;1843678;29;7055;-68
2022/07/18 02:39:43;;;;;;;;;;;;;;;;;;1840798;29;7301;-69
2022/07/18 02:40:40;;;;;;;;;;;;;;;;;;1842761;29;7031;-69
2022/07/18 02:41:38;;;;;;;;;;;;;;;;;;1843377;29;7006;-68
2022/07/18 02:42:35;;;;;;;;;;;;;;;;;;1838443;29;7070;-68
2022/07/18 02:43:33;;;;;;;;;;;;;;;;;;1839626;29;7059;-66
2022/07/18 02:44:31;;;;;;;;;;;;;;;;;;1846097;29;7010;-69
2022/07/18 02:45:28;;;;;;;;;;;;;;;;;;1841439;29;7011;-69
2022/07/18 02:46:26;;;;;;;;;;;;;;;;;;1844090;29;7006;-68
2022/07/18 02:47:24;;;;;;;;;;;;;;;;;;1839565;29;7014;-69
2022/07/18 02:48:22;;;;;;;;;;;;;;;;;;1843491;29;7596;-69
2022/07/18 02:49:28;;;;;;;;;;;;;;;;;;1839253;29;8733;-69
2022/07/18 02:50:25;;;;;;;;;;;;;;;;;;1838998;29;7006;-68
2022/07/18 02:51:24;;;;;;;;;;;;;;;;;;1840099;29;7014;-69
2022/07/18 02:52:21;;;;;;;;;;;;;;;;;;1839919;29;7101;-69
2022/07/18 02:53:19;;;;;;;;;;;;;;;;;;1839398;29;7031;-69
2022/07/18 02:54:16;;;;;;;;;;;;;;;;;;1839204;29;7038;-69
2022/07/18 02:55:14;;;;;;;;;;;;;;;;;;1841415;29;7019;-67
2022/07/18 02:56:11;;;;;;;;;;;;;;;;;;1844152;29;7043;-69
2022/07/18 02:57:09;;;;;;;;;;;;;;;;;;1843647;29;7029;-69
2022/07/18 02:58:06;;;;;;;;;;;;;;;;;;1838251;29;7360;-68
2022/07/18 02:59:04;;;;;;;;;;;;;;;;;;1840326;29;7196;-68
2022/07/18 03:00:03;;;;;;;;;;;;;;;;;;1844045;29;7014;-69
2022/07/18 03:01:01;;;;;;;;;;;;;;;;;;1845322;29;8048;-69
2022/07/18 03:02:00;;;;;;;;;;;;;;;;;;1838732;29;7183;-68
2022/07/18 03:02:57;;;;;;;;;;;;;;;;;;1838718;29;7126;-68
2022/07/18 03:03:57;;;;;;;;;;;;;;;;;;1836484;29;7286;-69
2022/07/18 03:04:54;;;;;;;;;;;;;;;;;;1833532;29;7387;-69
2022/07/18 03:05:52;;;;;;;;;;;;;;;;;;1832986;29;7114;-69
2022/07/18 03:06:50;;;;;;;;;;;;;;;;;;1832423;29;7011;-68
2022/07/18 03:07:47;;;;;;;;;;;;;;;;;;1834854;29;7020;-69
2022/07/18 03:08:44;;;;;;;;;;;;;;;;;;1831452;29;7107;-69
2022/07/18 03:09:42;;;;;;;;;;;;;;;;;;1832618;29;7018;-68
2022/07/18 03:10:39;;;;;;;;;;;;;;;;;;1832786;29;7042;-68
2022/07/18 03:11:37;;;;;;;;;;;;;;;;;;1832590;29;7014;-68
2022/07/18 03:12:34;;;;;;;;;;;;;;;;;;1832487;29;7047;-70
2022/07/18 03:13:31;;;;;;;;;;;;;;;;;;1832195;29;7018;-69
2022/07/18 03:14:30;;;;;;;;;;;;;;;;;;1834397;29;7031;-70
2022/07/18 03:15:27;;;;;;;;;;;;;;;;;;1838093;29;8049;-69
2022/07/18 03:16:24;;;;;;;;;;;;;;;;;;1839113;29;7059;-68
2022/07/18 03:17:22;;;;;;;;;;;;;;;;;;1839027;29;7011;-67
2022/07/18 03:18:19;;;;;;;;;;;;;;;;;;1836056;29;7121;-69
2022/07/18 03:19:17;;;;;;;;;;;;;;;;;;1832668;29;7031;-68
2022/07/18 03:20:14;;;;;;;;;;;;;;;;;;1838881;29;7002;-69
2022/07/18 03:21:11;;;;;;;;;;;;;;;;;;1836714;29;7003;-69
2022/07/18 03:22:09;;;;;;;;;;;;;;;;;;1834617;29;7007;-69
2022/07/18 03:23:07;;;;;;;;;;;;;;;;;;1832396;29;7102;-68
2022/07/18 03:24:05;;;;;;;;;;;;;;;;;;1835448;29;7194;-68
2022/07/18 03:25:03;;;;;;;;;;;;;;;;;;1838337;29;7818;-68
2022/07/18 03:26:00;;;;;;;;;;;;;;;;;;1832939;29;7010;-69
2022/07/18 03:26:58;;;;;;;;;;;;;;;;;;1838229;29;8039;-68
2022/07/18 03:27:55;;;;;;;;;;;;;;;;;;1832787;29;7051;-69
2022/07/18 03:28:52;;;;;;;;;;;;;;;;;;1832005;29;7097;-68
2022/07/18 03:29:50;;;;;;;;;;;;;;;;;;1832551;29;7035;-69
2022/07/18 03:30:47;;;;;;;;;;;;;;;;;;1832692;29;7015;-68
2022/07/18 03:31:45;;;;;;;;;;;;;;;;;;1831919;29;7129;-68
2022/07/18 03:32:42;;;;;;;;;;;;;;;;;;1836641;29;7010;-69
2022/07/18 03:33:39;;;;;;;;;;;;;;;;;;1837426;29;7082;-68
2022/07/18 03:34:37;;;;;;;;;;;;;;;;;;1831870;29;7110;-70
2022/07/18 03:35:34;;;;;;;;;;;;;;;;;;1832542;29;7118;-69
2022/07/18 03:36:32;;;;;;;;;;;;;;;;;;1832485;29;7089;-69
2022/07/18 03:37:30;;;;;;;;;;;;;;;;;;1836745;29;8030;-69
2022/07/18 03:38:27;;;;;;;;;;;;;;;;;;1839291;29;7125;-69
2022/07/18 03:39:25;;;;;;;;;;;;;;;;;;1838525;29;7042;-69
2022/07/18 03:40:23;;;;;;;;;;;;;;;;;;1835323;29;7074;-69
2022/07/18 03:41:20;;;;;;;;;;;;;;;;;;1839589;29;7002;-68
2022/07/18 03:42:18;;;;;;;;;;;;;;;;;;1839006;29;7007;-69
2022/07/18 03:43:17;;;;;;;;;;;;;;;;;;1834634;29;7130;-69
2022/07/18 03:44:14;;;;;;;;;;;;;;;;;;1839114;29;7397;-68
2022/07/18 03:45:11;;;;;;;;;;;;;;;;;;1831765;29;7047;-69
2022/07/18 03:46:09;;;;;;;;;;;;;;;;;;1834713;29;7098;-68
2022/07/18 03:47:06;;;;;;;;;;;;;;;;;;1832718;29;7334;-69
2022/07/18 03:48:04;;;;;;;;;;;;;;;;;;1832546;29;7030;-68
2022/07/18 03:49:02;;;;;;;;;;;;;;;;;;1832437;29;7010;-70
2022/07/18 03:50:00;;;;;;;;;;;;;;;;;;1832295;29;7010;-69
2022/07/18 03:50:57;;;;;;;;;;;;;;;;;;1832240;29;7039;-69
2022/07/18 03:51:55;;;;;;;;;;;;;;;;;;1832508;29;7006;-69
2022/07/18 03:52:53;;;;;;;;;;;;;;;;;;1832346;29;7006;-68
2022/07/18 03:53:50;;;;;;;;;;;;;;;;;;1831886;29;7011;-69
2022/07/18 03:54:48;;;;;;;;;;;;;;;;;;1831953;29;7018;-68
2022/07/18 03:55:45;;;;;;;;;;;;;;;;;;1834376;29;8108;-68
2022/07/18 03:56:43;;;;;;;;;;;;;;;;;;1845396;29;8025;-68
2022/07/18 03:57:40;;;;;;;;;;;;;;;;;;1838227;29;7010;-69
2022/07/18 03:58:41;;;;;;;;;;;;;;;;;;1838460;29;8029;-68
2022/07/18 03:59:38;;;;;;;;;;;;;;;;;;1832657;29;7015;-70
2022/07/18 04:00:36;;;;;;;;;;;;;;;;;;1832179;29;7086;-68
2022/07/18 04:01:33;;;;;;;;;;;;;;;;;;1838638;29;7169;-69
2022/07/18 04:02:31;;;;;;;;;;;;;;;;;;1834212;29;8036;-69
2022/07/18 04:03:28;;;;;;;;;;;;;;;;;;1845187;29;9597;-70
2022/07/18 04:04:25;;;;;;;;;;;;;;;;;;1838788;29;7126;-68
2022/07/18 04:05:23;;;;;;;;;;;;;;;;;;1827620;29;7174;-68
2022/07/18 04:06:20;;;;;;;;;;;;;;;;;;1832032;29;7038;-68
2022/07/18 04:07:18;;;;;;;;;;;;;;;;;;1833041;29;7097;-67
2022/07/18 04:08:15;;;;;;;;;;;;;;;;;;1834294;29;7022;-69
2022/07/18 04:09:13;;;;;;;;;;;;;;;;;;1832073;29;7047;-68
2022/07/18 04:10:11;;;;;;;;;;;;;;;;;;1833386;29;7430;-69
2022/07/18 04:11:09;;;;;;;;;;;;;;;;;;1832315;29;7322;-70
2022/07/18 04:12:06;;;;;;;;;;;;;;;;;;1832093;29;7026;-69
2022/07/18 04:13:03;;;;;;;;;;;;;;;;;;1832809;29;7006;-68
2022/07/18 04:14:01;;;;;;;;;;;;;;;;;;1833756;29;7047;-69
2022/07/18 04:14:58;;;;;;;;;;;;;;;;;;1834727;29;7051;-70
2022/07/18 04:15:56;;;;;;;;;;;;;;;;;;1836342;29;7010;-68
2022/07/18 04:16:53;;;;;;;;;;;;;;;;;;1831978;29;7534;-68
2022/07/18 04:17:51;;;;;;;;;;;;;;;;;;1832369;29;7018;-68
2022/07/18 04:18:49;;;;;;;;;;;;;;;;;;1839794;29;7015;-69
2022/07/18 04:19:46;;;;;;;;;;;;;;;;;;1835124;29;7031;-68
2022/07/18 04:20:44;;;;;;;;;;;;;;;;;;1833188;29;7022;-69
2022/07/18 04:21:41;;;;;;;;;;;;;;;;;;1834529;29;7097;-68
2022/07/18 04:22:55;;;;;;;;;;;;;;;;;;1844078;29;7137;-68
2022/07/18 04:23:53;;;;;;;;;;;;;;;;;;1839230;29;7050;-69
2022/07/18 04:24:50;;;;;;;;;;;;;;;;;;1836002;29;8498;-69
2022/07/18 04:25:50;;;;;;;;;;;;;;;;;;1835384;29;7006;-69
2022/07/18 04:26:47;;;;;;;;;;;;;;;;;;1833593;29;7006;-68
2022/07/18 04:27:45;;;;;;;;;;;;;;;;;;1833941;29;7006;-70
2022/07/18 04:28:42;;;;;;;;;;;;;;;;;;1833354;29;7098;-69
2022/07/18 04:29:43;;;;;;;;;;;;;;;;;;1838020;29;7155;-69
2022/07/18 04:30:41;;;;;;;;;;;;;;;;;;1837464;29;7279;-68
2022/07/18 04:31:38;;;;;;;;;;;;;;;;;;1832887;29;7106;-69
2022/07/18 04:32:38;;;;;;;;;;;;;;;;;;1833560;29;7097;-70
2022/07/18 04:33:35;;;;;;;;;;;;;;;;;;1839739;29;7043;-68
2022/07/18 04:34:33;;;;;;;;;;;;;;;;;;1840792;29;7122;-69
2022/07/18 04:35:31;;;;;;;;;;;;;;;;;;1840411;29;7010;-67
2022/07/18 04:36:29;;;;;;;;;;;;;;;;;;1840306;29;7002;-69
2022/07/18 04:37:29;;;;;;;;;;;;;;;;;;1846707;29;7070;-67
2022/07/18 04:38:26;;;;;;;;;;;;;;;;;;1840251;29;7170;-69
2022/07/18 04:39:24;;;;;;;;;;;;;;;;;;1843144;29;7034;-68
2022/07/18 04:40:21;;;;;;;;;;;;;;;;;;1837418;29;7031;-70
2022/07/18 04:41:22;;;;;;;;;;;;;;;;;;1833570;29;7081;-70
2022/07/18 04:42:19;;;;;;;;;;;;;;;;;;1840117;29;7402;-68
2022/07/18 04:43:17;;;;;;;;;;;;;;;;;;1840286;29;7227;-69
2022/07/18 04:44:14;;;;;;;;;;;;;;;;;;1837425;29;7006;-68
2022/07/18 04:45:11;;;;;;;;;;;;;;;;;;1833644;29;7010;-69
2022/07/18 04:46:09;;;;;;;;;;;;;;;;;;1839287;29;7173;-69
2022/07/18 04:47:06;;;;;;;;;;;;;;;;;;1846588;29;8047;-70
2022/07/18 04:48:04;;;;;;;;;;;;;;;;;;1847059;29;7330;-67
2022/07/18 04:49:02;;;;;;;;;;;;;;;;;;1840166;29;7010;-68
2022/07/18 04:49:59;;;;;;;;;;;;;;;;;;1840673;29;7272;-69
2022/07/18 04:50:59;;;;;;;;;;;;;;;;;;1833969;29;7091;-70
2022/07/18 04:51:57;;;;;;;;;;;;;;;;;;1833751;29;7015;-68
2022/07/18 04:52:54;;;;;;;;;;;;;;;;;;1834267;29;7207;-70
2022/07/18 04:53:54;;;;;;;;;;;;;;;;;;1835984;29;7225;-69
2022/07/18 04:54:51;;;;;;;;;;;;;;;;;;1833450;29;7151;-70
2022/07/18 04:55:49;;;;;;;;;;;;;;;;;;1833486;29;7043;-68
2022/07/18 04:56:46;;;;;;;;;;;;;;;;;;1839219;29;7011;-68
2022/07/18 04:57:44;;;;;;;;;;;;;;;;;;1840427;29;7102;-69
2022/07/18 04:58:41;;;;;;;;;;;;;;;;;;1837030;29;7035;-69
2022/07/18 04:59:38;;;;;;;;;;;;;;;;;;1834153;29;7007;-68
2022/07/18 05:00:36;;;;;;;;;;;;;;;;;;1840580;29;7755;-68
2022/07/18 05:01:35;;;;;;;;;;;;;;;;;;1838479;29;7271;-69
2022/07/18 05:02:32;;;;;;;;;;;;;;;;;;1839895;29;7382;-70
2022/07/18 05:03:30;;;;;;;;;;;;;;;;;;1847018;29;8020;-68
2022/07/18 05:04:27;;;;;;;;;;;;;;;;;;1845648;29;7089;-70
2022/07/18 05:05:26;;;;;;;;;;;;;;;;;;1834241;29;7047;-69
2022/07/18 05:06:32;;;;;;;;;;;;;;;;;;1834904;29;7014;-68
2022/07/18 05:07:30;;;;;;;;;;;;;;;;;;1834080;29;7010;-67
2022/07/18 05:08:27;;;;;;;;;;;;;;;;;;1841591;29;8073;-69
2022/07/18 05:09:24;;;;;;;;;;;;;;;;;;1846913;29;7010;-68
2022/07/18 05:10:23;;;;;;;;;;;;;;;;;;1840973;29;7015;-68
2022/07/18 05:11:20;;;;;;;;;;;;;;;;;;1840144;29;7098;-68
2022/07/18 05:12:18;;;;;;;;;;;;;;;;;;1836389;29;7039;-69
2022/07/18 05:13:16;;;;;;;;;;;;;;;;;;1846675;29;7325;-69
2022/07/18 05:14:13;;;;;;;;;;;;;;;;;;1847209;29;7030;-69
2022/07/18 05:15:12;;;;;;;;;;;;;;;;;;1836374;29;7006;-69
2022/07/18 05:16:10;;;;;;;;;;;;;;;;;;1835591;29;7117;-69
2022/07/18 05:17:07;;;;;;;;;;;;;;;;;;1840353;29;7051;-68
2022/07/18 05:18:05;;;;;;;;;;;;;;;;;;1846725;29;7256;-69
2022/07/18 05:19:02;;;;;;;;;;;;;;;;;;1840159;29;7126;-67
2022/07/18 05:20:00;;;;;;;;;;;;;;;;;;1834637;29;7043;-69
2022/07/18 05:20:57;;;;;;;;;;;;;;;;;;1833713;29;8089;-68
2022/07/18 05:21:54;;;;;;;;;;;;;;;;;;1837057;29;7015;-69
2022/07/18 05:22:52;;;;;;;;;;;;;;;;;;1840156;29;8109;-68
2022/07/18 05:23:50;;;;;;;;;;;;;;;;;;1840343;29;7093;-69
2022/07/18 05:24:47;;;;;;;;;;;;;;;;;;1840583;29;7010;-67
2022/07/18 05:25:44;;;;;;;;;;;;;;;;;;1839942;29;7007;-70
2022/07/18 05:26:42;;;;;;;;;;;;;;;;;;1840193;29;7051;-69
2022/07/18 05:27:40;;;;;;;;;;;;;;;;;;1835683;29;7027;-69
2022/07/18 05:28:37;;;;;;;;;;;;;;;;;;1833127;29;7113;-69
2022/07/18 05:29:35;;;;;;;;;;;;;;;;;;1832966;29;7158;-69
2022/07/18 05:30:33;;;;;;;;;;;;;;;;;;1833095;29;7959;-70
2022/07/18 05:31:30;;;;;;;;;;;;;;;;;;1833573;29;7460;-68
2022/07/18 05:32:28;;;;;;;;;;;;;;;;;;1844374;29;8106;-68
2022/07/18 05:33:25;;;;;;;;;;;;;;;;;;1839445;29;7007;-69
2022/07/18 05:34:23;;;;;;;;;;;;;;;;;;1835806;29;7117;-69
2022/07/18 05:35:20;;;;;;;;;;;;;;;;;;1833128;29;7018;-69
2022/07/18 05:36:18;;;;;;;;;;;;;;;;;;1833153;29;7010;-67
2022/07/18 05:37:15;;;;;;;;;;;;;;;;;;1835348;29;7015;-70
2022/07/18 05:38:12;;;;;;;;;;;;;;;;;;1839731;29;7467;-69
2022/07/18 05:39:10;;;;;;;;;;;;;;;;;;1834140;29;7014;-69
2022/07/18 05:40:09;;;;;;;;;;;;;;;;;;1842303;29;7003;-68
2022/07/18 05:41:06;;;;;;;;;;;;;;;;;;1842810;29;7006;-68
2022/07/18 05:42:04;;;;;;;;;;;;;;;;;;1841179;29;7050;-68
2022/07/18 05:43:02;;;;;;;;;;;;;;;;;;1839934;29;7099;-69
2022/07/18 05:44:00;;;;;;;;;;;;;;;;;;1839412;29;8017;-69
2022/07/18 05:44:57;;;;;;;;;;;;;;;;;;1837783;29;7011;-70
2022/07/18 05:45:55;;;;;;;;;;;;;;;;;;1838350;29;8010;-70
2022/07/18 05:46:52;;;;;;;;;;;;;;;;;;1840253;29;7018;-67
2022/07/18 05:47:50;;;;;;;;;;;;;;;;;;1838084;29;7010;-68
2022/07/18 05:48:48;;;;;;;;;;;;;;;;;;1838939;29;7371;-68
2022/07/18 05:49:45;;;;;;;;;;;;;;;;;;1833815;29;7079;-69
2022/07/18 05:50:44;;;;;;;;;;;;;;;;;;1833441;29;8299;-68
2022/07/18 05:51:41;;;;;;;;;;;;;;;;;;1832568;29;7131;-70
2022/07/18 05:52:39;;;;;;;;;;;;;;;;;;1838841;29;7358;-69
2022/07/18 05:53:36;;;;;;;;;;;;;;;;;;1840063;29;7010;-68
2022/07/18 05:54:34;;;;;;;;;;;;;;;;;;1832282;29;7019;-68
2022/07/18 05:55:31;;;;;;;;;;;;;;;;;;1838154;29;7312;-69
2022/07/18 05:56:29;;;;;;;;;;;;;;;;;;1833152;29;7007;-69
2022/07/18 05:57:27;;;;;;;;;;;;;;;;;;1833268;29;7011;-70
2022/07/18 05:58:24;;;;;;;;;;;;;;;;;;1832750;29;7325;-69
2022/07/18 05:59:21;;;;;;;;;;;;;;;;;;1832850;29;7010;-70
2022/07/18 06:00:19;;;;;;;;;;;;;;;;;;1832424;29;8103;-69
2022/07/18 06:01:19;;;;;;;;;;;;;;;;;;1839278;29;7047;-69
2022/07/18 06:02:17;;;;;;;;;;;;;;;;;;1839230;29;7154;-69
2022/07/18 06:03:15;;;;;;;;;;;;;;;;;;1834760;29;7014;-68
2022/07/18 06:04:13;;;;;;;;;;;;;;;;;;1834750;29;7043;-68
2022/07/18 06:05:11;;;;;;;;;;;;;;;;;;1836445;29;7074;-68
2022/07/18 06:06:24;;;;;;;;;;;;;;;;;;1835891;29;7181;-69
2022/07/18 06:07:22;;;;;;;;;;;;;;;;;;1839195;29;7010;-67
2022/07/18 06:08:19;;;;;;;;;;;;;;;;;;1831443;29;7167;-71
2022/07/18 06:09:17;;;;;;;;;;;;;;;;;;1833027;29;7097;-70
2022/07/18 06:10:14;;;;;;;;;;;;;;;;;;1834118;29;7093;-67
2022/07/18 06:11:12;;;;;;;;;;;;;;;;;;1835057;29;7353;-69
2022/07/18 06:12:10;;;;;;;;;;;;;;;;;;1834019;29;7070;-68
2022/07/18 06:13:07;;;;;;;;;;;;;;;;;;1839683;29;7302;-68
2022/07/18 06:14:05;;;;;;;;;;;;;;;;;;1839929;29;7034;-69
2022/07/18 06:15:02;;;;;;;;;;;;;;;;;;1838832;29;7010;-68
2022/07/18 06:16:00;;;;;;;;;;;;;;;;;;1832938;29;7102;-68
2022/07/18 06:16:58;;;;;;;;;;;;;;;;;;1832703;29;7007;-68
2022/07/18 06:17:55;;;;;;;;;;;;;;;;;;1833325;29;7047;-69
2022/07/18 06:18:53;;;;;;;;;;;;;;;;;;1832512;29;8040;-67
2022/07/18 06:19:50;;;;;;;;;;;;;;;;;;1840374;29;7022;-68
2022/07/18 06:20:48;;;;;;;;;;;;;;;;;;1840232;29;7006;-68
2022/07/18 06:21:45;;;;;;;;;;;;;;;;;;1837177;29;7010;-69
2022/07/18 06:22:43;;;;;;;;;;;;;;;;;;1833244;29;7130;-69
2022/07/18 06:23:40;;;;;;;;;;;;;;;;;;1838609;29;9988;-68
2022/07/18 06:24:38;;;;;;;;;;;;;;;;;;1839656;29;8064;-69
2022/07/18 06:25:35;;;;;;;;;;;;;;;;;;1834325;29;7010;-69
2022/07/18 06:26:33;;;;;;;;;;;;;;;;;;1833649;29;7014;-67
2022/07/18 06:27:30;;;;;;;;;;;;;;;;;;1833272;29;7059;-69
2022/07/18 06:28:28;;;;;;;;;;;;;;;;;;1833345;29;7385;-70
2022/07/18 06:29:25;;;;;;;;;;;;;;;;;;1834067;29;7014;-68
2022/07/18 06:30:23;;;;;;;;;;;;;;;;;;1839296;29;7097;-70
2022/07/18 06:31:20;;;;;;;;;;;;;;;;;;1839906;29;8117;-69
2022/07/18 06:32:18;;;;;;;;;;;;;;;;;;1839679;29;7047;-68
2022/07/18 06:33:15;;;;;;;;;;;;;;;;;;1836903;29;7101;-68
2022/07/18 06:34:12;;;;;;;;;;;;;;;;;;1831759;29;7038;-69
2022/07/18 06:35:10;;;;;;;;;;;;;;;;;;1839141;29;7118;-68
2022/07/18 06:36:08;;;;;;;;;;;;;;;;;;1831716;29;7078;-67
2022/07/18 06:37:05;;;;;;;;;;;;;;;;;;1843440;29;8932;-69
2022/07/18 06:38:03;;;;;;;;;;;;;;;;;;1838773;29;7338;-68
2022/07/18 06:43:06;;;;;;;;;;;;;;;;;;1831903;29;7198;-69
2022/07/18 06:44:03;;;;;;;;;;;;;;;;;;1832775;29;7019;-69
2022/07/18 06:45:01;;;;;;;;;;;;;;;;;;1832411;29;8117;-70
2022/07/18 06:46:02;;;;;;;;;;;;;;;;;;1832250;29;7094;-70
2022/07/18 06:46:59;;;;;;;;;;;;;;;;;;1833436;29;7278;-69
2022/07/18 06:47:57;;;;;;;;;;;;;;;;;;1833506;29;7006;-70